Time;durP1;ratioP1;P1;durP2;ratioP2;P2;SDS_P1;SDS_P2;PMS_P1;PMS_P2;Temp;Humidity;BMP_temperature;BMP_pressure;BME280_temperature;BME280_humidity;BME280_pressure;Samples;Min_cycle;Max_cycle;Signal;HPM_P1;HPM_P2
2021/05/10 00:00:46;;;;;;;6.70;3.20;;;14.10;29.80;;;;;;4846089;29;20061;-89
2021/05/10 00:06:35;;;;;;;8.52;2.80;;;14.10;30.00;;;;;;4843125;29;20040;-90
2021/05/10 00:12:24;;;;;;;6.43;2.83;;;13.90;30.10;;;;;;4846376;29;20136;-90
2021/05/10 00:18:14;;;;;;;6.72;2.90;;;13.90;30.20;;;;;;4846520;29;20037;-90
2021/05/10 00:24:02;;;;;;;7.57;3.03;;;13.80;30.40;;;;;;4846170;29;20380;-89
2021/05/10 00:29:51;;;;;;;7.55;3.28;;;13.70;30.60;;;;;;4846060;29;20045;-89
2021/05/10 00:35:40;;;;;;;7.05;3.15;;;13.70;30.80;;;;;;4845401;29;20542;-88
2021/05/10 00:45:25;;;;;;;6.90;3.10;;;13.60;30.90;;;;;;4845583;29;20518;-88
2021/05/10 00:51:20;;;;;;;9.07;3.22;;;13.50;31.00;;;;;;4845451;29;20054;-89
2021/05/10 00:57:10;;;;;;;9.48;3.40;;;13.30;31.10;;;;;;4845090;29;20041;-88
2021/05/10 01:02:59;;;;;;;6.88;3.33;;;13.20;31.30;;;;;;4845056;29;20059;-90
2021/05/10 01:08:49;;;;;;;7.20;3.10;;;13.10;31.60;;;;;;4845137;29;20037;-88
2021/05/10 01:14:37;;;;;;;6.45;2.95;;;13.10;31.80;;;;;;4845201;29;20539;-88
2021/05/10 01:20:27;;;;;;;8.27;3.35;;;13.00;31.90;;;;;;4858878;29;20062;-88
2021/05/10 01:26:16;;;;;;;7.07;3.28;;;12.90;32.00;;;;;;4855861;29;20041;-88
2021/05/10 01:32:05;;;;;;;7.22;3.30;;;12.80;32.20;;;;;;4859748;29;20371;-88
2021/05/10 01:37:55;;;;;;;8.00;3.03;;;12.70;32.40;;;;;;4845745;29;20052;-87
2021/05/10 01:47:40;;;;;;;7.75;3.15;;;12.70;32.60;;;;;;4845357;29;20041;-90
2021/05/10 01:53:28;;;;;;;8.30;3.42;;;12.60;32.80;;;;;;4844640;29;20121;-90
2021/05/10 01:59:18;;;;;;;9.25;3.13;;;12.60;33.10;;;;;;4844397;29;20498;-89
2021/05/10 02:05:12;;;;;;;7.70;3.13;;;12.60;33.30;;;;;;4844404;29;20090;-89
2021/05/10 02:11:01;;;;;;;6.10;2.97;;;12.50;33.40;;;;;;4844679;29;20120;-91
2021/05/10 02:16:50;;;;;;;6.72;3.25;;;12.50;33.50;;;;;;4844357;29;20105;-91
2021/05/10 02:22:39;;;;;;;7.80;3.17;;;12.50;33.70;;;;;;4843851;29;20536;-89
2021/05/10 02:28:30;;;;;;;6.00;2.75;;;12.40;33.80;;;;;;4843851;29;20033;-89
2021/05/10 02:34:18;;;;;;;6.18;2.85;;;12.30;33.90;;;;;;4843769;29;20052;-89
2021/05/10 02:40:22;;;;;;;6.90;2.80;;;12.20;34.00;;;;;;4843593;29;20062;-91
2021/05/10 02:50:20;;;;;;;6.65;3.22;;;12.20;34.20;;;;;;4843436;29;20165;-90
2021/05/10 02:56:08;;;;;;;7.35;3.28;;;12.10;34.50;;;;;;4843249;29;20052;-90
2021/05/10 03:01:57;;;;;;;7.30;3.30;;;12.10;34.70;;;;;;4843524;29;20045;-89
2021/05/10 03:07:46;;;;;;;7.00;2.80;;;12.20;35.00;;;;;;4843481;29;20094;-90
2021/05/10 03:13:40;;;;;;;8.18;3.00;;;12.20;35.10;;;;;;4843728;29;20033;-91
2021/05/10 03:19:29;;;;;;;8.40;3.58;;;12.20;35.20;;;;;;4843331;29;20502;-90
2021/05/10 03:25:23;;;;;;;6.85;3.08;;;12.10;35.30;;;;;;4842875;29;20029;-90
2021/05/10 03:31:11;;;;;;;7.00;3.35;;;12.00;35.50;;;;;;4842807;29;20102;-89
2021/05/10 03:37:00;;;;;;;6.32;2.97;;;12.10;35.70;;;;;;4843216;29;20057;-89
2021/05/10 03:42:49;;;;;;;5.35;2.60;;;12.10;35.80;;;;;;4844011;29;20376;-91
2021/05/10 03:52:40;;;;;;;8.95;3.03;;;12.40;36.20;;;;;;4846956;29;20148;-91
2021/05/10 03:58:30;;;;;;;7.63;3.13;;;12.50;36.40;;;;;;4847280;29;20045;-91
2021/05/10 04:04:37;;;;;;;9.00;4.10;;;12.50;36.50;;;;;;4846431;29;20444;-89
2021/05/10 04:10:41;;;;;;;9.43;3.90;;;12.60;36.70;;;;;;4846016;29;20058;-89
2021/05/10 04:16:30;;;;;;;6.03;2.78;;;12.70;36.90;;;;;;4846054;29;20110;-89
2021/05/10 04:22:19;;;;;;;8.35;3.38;;;12.80;37.00;;;;;;4846245;29;20436;-89
2021/05/10 04:28:27;;;;;;;8.00;3.28;;;12.90;37.00;;;;;;4846101;29;20102;-88
2021/05/10 04:35:25;;;;;;;;;;;;;;;;;;;;;
2021/05/10 04:41:12;;;;;;;9.93;3.90;;;13.00;37.40;;;;;;4845602;29;20175;-87
2021/05/10 04:47:21;;;;;;;7.32;3.25;;;13.10;37.60;;;;;;4845426;29;20114;-88
2021/05/10 04:53:13;;;;;;;7.90;3.50;;;13.20;37.60;;;;;;4845495;29;20118;-89
2021/05/10 04:59:01;;;;;;;8.85;2.88;;;13.10;37.70;;;;;;4845793;29;20041;-89
2021/05/10 05:04:49;;;;;;;4.82;2.30;;;13.50;38.70;;;;;;4846117;29;20037;-90
2021/05/10 05:10:37;;;;;;;7.43;2.20;;;14.20;39.10;;;;;;4845870;29;20058;-91
2021/05/10 05:16:27;;;;;;;6.10;2.22;;;14.80;39.10;;;;;;4845616;29;20080;-87
2021/05/10 05:22:15;;;;;;;3.80;2.10;;;15.20;38.80;;;;;;4846911;29;20502;-91
2021/05/10 05:28:05;;;;;;;3.85;2.10;;;15.60;39.20;;;;;;4846345;29;20183;-82
2021/05/10 05:33:53;;;;;;;3.30;1.92;;;16.10;39.50;;;;;;4845565;29;20044;-82
2021/05/10 05:39:41;;;;;;;2.58;1.90;;;16.70;39.40;;;;;;4845745;29;20098;-82
2021/05/10 05:45:29;;;;;;;3.63;1.80;;;17.00;39.40;;;;;;4845085;29;20029;-84
2021/05/10 05:55:23;;;;;;;3.80;2.13;;;17.60;39.40;;;;;;4844521;29;20053;-87
2021/05/10 06:01:15;;;;;;;5.00;2.10;;;17.80;39.30;;;;;;4844323;29;20029;-87
2021/05/10 06:07:04;;;;;;;4.65;2.10;;;17.90;39.10;;;;;;4844121;29;20122;-86
2021/05/10 06:12:53;;;;;;;2.88;2.00;;;17.90;39.20;;;;;;4844028;29;20036;-86
2021/05/10 06:18:43;;;;;;;3.45;1.83;;;18.10;39.40;;;;;;4843887;29;20036;-86
2021/05/10 06:24:31;;;;;;;4.05;1.88;;;18.20;39.70;;;;;;4844189;29;20045;-84
2021/05/10 06:30:20;;;;;;;4.85;2.10;;;18.60;39.80;;;;;;4843921;29;20094;-84
2021/05/10 06:36:08;;;;;;;4.60;1.95;;;18.90;40.20;;;;;;4843448;29;20053;-86
2021/05/10 06:41:57;;;;;;;4.90;1.73;;;19.40;40.30;;;;;;4843613;29;20057;-86
2021/05/10 06:47:45;;;;;;;3.20;1.77;;;19.80;40.40;;;;;;4843230;29;20037;-86
2021/05/10 06:57:28;;;;;;;2.63;1.83;;;20.70;40.90;;;;;;4843425;29;20060;-86
2021/05/10 07:03:17;;;;;;;2.92;1.75;;;21.50;41.20;;;;;;4843222;29;20113;-85
2021/05/10 07:09:06;;;;;;;3.25;1.90;;;22.30;41.00;;;;;;4843226;29;20094;-86
2021/05/10 07:14:54;;;;;;;4.68;2.15;;;22.90;40.80;;;;;;4843018;29;20143;-85
2021/05/10 07:20:44;;;;;;;3.75;2.10;;;23.10;40.30;;;;;;4843233;29;20079;-85
2021/05/10 07:26:34;;;;;;;2.92;1.63;;;23.40;40.20;;;;;;4843105;29;20447;-86
2021/05/10 07:32:21;;;;;;;2.80;1.75;;;23.40;39.60;;;;;;4843166;29;20432;-86
2021/05/10 07:38:10;;;;;;;2.83;1.52;;;23.50;40.00;;;;;;4843242;29;20060;-84
2021/05/10 07:43:58;;;;;;;3.25;1.80;;;23.60;39.40;;;;;;4842722;29;20060;-86
2021/05/10 07:49:47;;;;;;;4.85;1.80;;;23.50;39.50;;;;;;4842951;29;20037;-86
2021/05/10 07:59:30;;;;;;;3.00;1.83;;;23.90;39.80;;;;;;4842824;29;20117;-86
2021/05/10 08:05:18;;;;;;;2.50;1.67;;;24.30;40.00;;;;;;4848803;29;20049;-84
2021/05/10 08:11:06;;;;;;;4.32;1.80;;;24.50;39.40;;;;;;4842785;29;20032;-85
2021/05/10 08:16:55;;;;;;;4.45;1.60;;;24.50;39.30;;;;;;4842764;29;20060;-87
2021/05/10 08:22:44;;;;;;;6.15;2.70;;;24.50;39.30;;;;;;4844097;29;20482;-85
2021/05/10 08:28:32;;;;;;;4.85;2.10;;;24.70;39.20;;;;;;4842537;29;20083;-85
2021/05/10 08:34:21;;;;;;;2.25;1.58;;;24.90;39.10;;;;;;4845438;29;20033;-85
2021/05/10 08:40:13;;;;;;;3.78;1.60;;;25.10;39.20;;;;;;4845576;29;20102;-86
2021/05/10 08:46:04;;;;;;;2.25;1.50;;;25.60;39.60;;;;;;4845294;29;20033;-85
2021/05/10 08:51:54;;;;;;;2.53;1.40;;;26.30;39.80;;;;;;4845826;29;20078;-86
2021/05/10 09:01:47;;;;;;;4.15;1.83;;;27.60;40.10;;;;;;4845478;29;20045;-85
2021/05/10 09:07:36;;;;;;;3.63;1.55;;;27.70;38.50;;;;;;4845562;29;20046;-84
2021/05/10 09:13:57;;;;;;;3.45;2.15;;;27.70;38.00;;;;;;4846194;29;20371;-91
2021/05/10 09:30:39;;;;;;;5.07;1.73;;;27.30;37.50;;;;;;4847721;29;20033;-89
2021/05/10 09:37:11;;;;;;;;;;;;;;;;;;;;;
2021/05/10 09:43:05;;;;;;;7.70;2.08;;;27.40;37.20;;;;;;4851106;29;20037;-90
2021/05/10 09:49:11;;;;;;;5.78;1.70;;;27.40;37.10;;;;;;4854440;29;20090;-90
2021/05/10 09:55:05;;;;;;;2.35;1.50;;;27.60;37.00;;;;;;4844090;29;20056;-85
2021/05/10 10:04:53;;;;;;;3.20;1.70;;;27.80;37.50;;;;;;4844620;29;20174;-85
2021/05/10 10:10:51;;;;;;;4.80;1.58;;;28.10;36.90;;;;;;4845085;29;20086;-86
2021/05/10 10:16:40;;;;;;;3.22;1.70;;;28.40;36.60;;;;;;4843862;29;20061;-85
2021/05/10 10:22:29;;;;;;;3.33;1.67;;;28.60;36.60;;;;;;4843514;29;20098;-85
2021/05/10 10:28:20;;;;;;;2.28;1.30;;;29.00;36.90;;;;;;4843711;29;20040;-85
2021/05/10 10:47:48;;;;;;;1.63;1.52;;;30.70;36.40;;;;;;4845353;29;20383;-88
2021/05/10 11:00:53;;;;;;;5.07;1.77;;;31.40;36.30;;;;;;4799922;29;20093;-90
2021/05/10 12:06:28;;;;;;;;;;;;;;;;;;;;;
2021/05/10 12:33:53;;;;;;;2.25;1.52;;;37.10;29.20;;;;;;4723667;30;20047;-89
2021/05/10 12:36:37;;;;;;;5.75;1.80;;;37.00;29.70;;;;;;4738536;30;20560;-89
2021/05/10 12:42:38;;;;;;;2.67;1.60;;;36.50;29.00;;;;;;4735769;30;20479;-90
2021/05/10 12:48:46;;;;;;;3.47;1.80;;;36.10;28.70;;;;;;4735701;30;20059;-89
2021/05/10 12:55:03;;;;;;;;;;;;;;;;;;;;;
2021/05/10 13:00:58;;;;;;;2.33;1.65;;;35.30;28.50;;;;;;4734962;30;20040;-88
2021/05/10 13:10:31;;;;;;;4.40;1.70;;;34.90;28.40;;;;;;4845053;29;20041;-88
2021/05/10 13:17:05;;;;;;;4.28;1.80;;;34.40;27.90;;;;;;4844101;29;20049;-89
2021/05/10 13:27:01;;;;;;;3.40;1.90;;;33.80;28.50;;;;;;4844812;29;20048;-90
2021/05/10 13:41:42;;;;;;;4.28;1.95;;;32.30;28.60;;;;;;4845479;29;20029;-89
2021/05/10 13:47:31;;;;;;;5.72;1.95;;;32.70;28.90;;;;;;4854991;29;20040;-86
2021/05/10 13:53:20;;;;;;;5.65;2.10;;;33.50;29.30;;;;;;4863940;29;20055;-88
2021/05/10 13:59:08;;;;;;;5.47;2.03;;;34.90;30.40;;;;;;4852034;29;20033;-89
2021/05/10 14:08:44;;;;;;;2.03;1.42;;;36.10;28.60;;;;;;4845748;29;20056;-90
2021/05/10 14:14:33;;;;;;;4.05;1.70;;;35.70;29.30;;;;;;4844681;29;20069;-89
2021/05/10 14:21:57;;;;;;;4.05;1.70;;;35.30;28.90;;;;;;4844058;29;20045;-89
2021/05/10 14:26:35;;;;;;;4.03;1.70;;;34.00;28.60;;;;;;4843874;29;20045;-89
2021/05/10 14:32:24;;;;;;;5.03;2.00;;;34.00;28.60;;;;;;4843823;29;20220;-90
2021/05/10 14:38:50;;;;;;;2.35;1.60;;;33.40;29.60;;;;;;4843669;29;20033;-88
2021/05/10 14:45:46;;;;;;;2.50;1.80;;;34.60;29.60;;;;;;4787358;29;20123;-87
2021/05/10 14:51:32;;;;;;;1.85;1.50;;;35.80;30.30;;;;;;4758340;30;20092;-88
2021/05/10 14:57:20;;;;;;;2.80;1.33;;;37.10;31.20;;;;;;4787977;30;20034;-89
2021/05/10 15:03:09;;;;;;;7.20;1.75;;;35.30;27.20;;;;;;4787095;30;20042;-89
2021/05/10 15:09:17;;;;;;;2.30;1.58;;;33.00;27.90;;;;;;4787035;30;20049;-89
2021/05/10 15:15:07;;;;;;;3.78;1.85;;;32.30;27.90;;;;;;4825122;29;20445;-88
2021/05/10 15:20:56;;;;;;;4.35;1.90;;;32.20;29.20;;;;;;4825152;29;20126;-89
2021/05/10 15:26:45;;;;;;;2.08;1.42;;;32.60;29.90;;;;;;4824706;29;20511;-89
2021/05/10 15:32:34;;;;;;;7.80;2.92;;;33.20;29.40;;;;;;4824720;29;20076;-92
2021/05/10 15:38:23;;;;;;;3.90;1.83;;;33.40;29.50;;;;;;4825213;29;20076;-91
2021/05/10 15:44:12;;;;;;;4.25;1.60;;;33.40;29.20;;;;;;4828765;29;20157;-92
2021/05/10 15:50:00;;;;;;;1.63;1.45;;;32.40;28.40;;;;;;4828151;29;20053;-91
2021/05/10 15:55:49;;;;;;;4.85;1.58;;;31.10;27.90;;;;;;4828136;29;20033;-91
2021/05/10 16:01:39;;;;;;;3.85;1.83;;;30.20;28.90;;;;;;4827961;29;20406;-89
2021/05/10 16:11:29;;;;;;;2.80;1.60;;;30.30;29.30;;;;;;4846353;29;20418;-88
2021/05/10 16:17:18;;;;;;;7.13;2.00;;;30.40;29.50;;;;;;4846205;29;20137;-86
2021/05/10 16:23:16;;;;;;;5.75;2.38;;;29.70;28.80;;;;;;4845875;29;20559;-88
2021/05/10 16:29:06;;;;;;;4.00;1.65;;;29.00;29.10;;;;;;4845585;29;20060;-85
2021/05/10 16:34:55;;;;;;;3.95;1.77;;;28.70;29.50;;;;;;4845825;29;20449;-84
2021/05/10 16:40:42;;;;;;;5.70;2.22;;;27.90;28.90;;;;;;4846076;29;20076;-81
2021/05/10 16:46:33;;;;;;;3.85;1.50;;;27.40;29.50;;;;;;4845270;29;20077;-84
2021/05/10 16:52:22;;;;;;;5.97;1.70;;;27.00;29.60;;;;;;4844876;29;20588;-84
2021/05/10 16:58:11;;;;;;;2.35;1.35;;;26.40;29.60;;;;;;4845090;29;20486;-84
2021/05/10 17:03:59;;;;;;;3.63;1.42;;;25.90;29.80;;;;;;4845274;29;20034;-84
2021/05/10 17:13:47;;;;;;;5.25;1.80;;;25.30;30.00;;;;;;4845143;29;20073;-84
2021/05/10 17:19:35;;;;;;;2.55;1.40;;;25.00;30.00;;;;;;4844994;29;20094;-84
2021/05/10 17:25:24;;;;;;;2.65;1.55;;;24.70;30.20;;;;;;4844643;29;20072;-84
2021/05/10 17:31:13;;;;;;;0.95;0.93;;;24.40;30.40;;;;;;4845018;29;20129;-87
2021/05/10 17:37:03;;;;;;;1.85;1.10;;;24.20;30.80;;;;;;4844390;29;20037;-85
2021/05/10 17:42:52;;;;;;;2.38;1.38;;;24.00;30.90;;;;;;4844359;29;20501;-85
2021/05/10 17:48:43;;;;;;;1.60;1.33;;;23.80;31.20;;;;;;4844427;29;20045;-84
2021/05/10 17:54:31;;;;;;;2.42;1.42;;;23.60;31.30;;;;;;4844417;29;20086;-84
2021/05/10 18:00:23;;;;;;;12.15;7.13;;;23.40;31.50;;;;;;4844114;29;20395;-84
2021/05/10 18:06:12;;;;;;;2.17;1.42;;;23.30;31.90;;;;;;4845054;29;20048;-84
2021/05/10 18:15:58;;;;;;;2.17;1.10;;;23.10;32.10;;;;;;4843913;29;20036;-86
2021/05/10 18:21:57;;;;;;;2.15;1.50;;;23.00;32.40;;;;;;4844029;29;20037;-87
2021/05/10 18:27:47;;;;;;;2.90;1.40;;;22.90;32.50;;;;;;4843918;29;20484;-86
2021/05/10 18:33:35;;;;;;;2.30;1.27;;;22.80;32.80;;;;;;4843652;29;20040;-87
2021/05/10 18:39:24;;;;;;;3.63;1.42;;;22.80;33.00;;;;;;4843760;29;20041;-86
2021/05/10 18:45:16;;;;;;;4.78;1.90;;;22.50;32.90;;;;;;4843513;29;20050;-87
2021/05/10 18:51:08;;;;;;;4.00;1.63;;;22.30;33.00;;;;;;4843834;29;20174;-88
2021/05/10 18:56:57;;;;;;;1.63;1.30;;;22.00;33.20;;;;;;4843120;29;20074;-87
2021/05/10 19:02:46;;;;;;;3.45;1.40;;;21.90;33.50;;;;;;4843364;29;20037;-87
2021/05/10 19:08:59;;;;;;;4.22;1.58;;;21.70;33.60;;;;;;4843187;29;20398;-88
2021/05/10 19:18:47;;;;;;;1.33;1.17;;;21.50;33.90;;;;;;4843151;29;20094;-87
2021/05/10 19:24:36;;;;;;;3.22;1.52;;;21.40;34.00;;;;;;4842714;29;20040;-86
2021/05/10 19:30:26;;;;;;;2.58;1.40;;;21.30;34.20;;;;;;4843103;29;20390;-86
2021/05/10 19:36:15;;;;;;;2.38;1.27;;;21.20;34.50;;;;;;4842840;29;20041;-86
2021/05/10 19:42:03;;;;;;;0.98;0.85;;;21.10;34.70;;;;;;4842692;29;20033;-85
2021/05/10 20:06:01;;;;;;;1.05;0.90;;;20.60;35.30;;;;;;4842666;29;20090;-87
2021/05/10 20:11:54;;;;;;;0.85;0.85;;;20.50;35.40;;;;;;4842948;29;20498;-85
2021/05/10 20:21:43;;;;;;;1.08;0.80;;;20.30;35.60;;;;;;4842945;29;20102;-86
2021/05/10 20:27:33;;;;;;;0.88;0.73;;;20.10;35.90;;;;;;4848730;29;20090;-89
2021/05/10 20:33:22;;;;;;;1.02;0.98;;;20.10;36.00;;;;;;4845690;29;20086;-88
2021/05/10 20:39:15;;;;;;;4.25;0.98;;;20.00;36.20;;;;;;4845784;29;20060;-87
2021/05/10 20:45:17;;;;;;;0.77;0.77;;;19.90;36.10;;;;;;4845364;29;20041;-88
2021/05/10 20:51:06;;;;;;;1.55;0.90;;;19.80;36.30;;;;;;4845499;29;20049;-88
2021/05/10 20:56:55;;;;;;;0.80;0.70;;;19.60;36.40;;;;;;4845511;29;20045;-89
2021/05/10 21:02:47;;;;;;;1.48;1.00;;;19.60;36.70;;;;;;4844951;29;20456;-87
2021/05/10 21:08:36;;;;;;;1.20;0.90;;;19.50;36.80;;;;;;4845144;29;20041;-87
2021/05/10 21:14:26;;;;;;;1.15;1.00;;;19.40;36.90;;;;;;4845145;29;20110;-88
2021/05/10 21:24:17;;;;;;;2.28;1.13;;;19.20;36.90;;;;;;4845081;29;20468;-89
2021/05/10 21:30:06;;;;;;;1.52;0.98;;;19.10;37.40;;;;;;4844657;29;20447;-88
2021/05/10 21:35:55;;;;;;;1.23;1.10;;;19.00;37.40;;;;;;4844452;29;20046;-88
2021/05/10 21:41:43;;;;;;;1.23;1.00;;;18.90;37.80;;;;;;4844336;29;20042;-90
2021/05/10 21:47:32;;;;;;;0.70;0.70;;;18.80;37.70;;;;;;4844661;29;20439;-90
2021/05/10 21:53:21;;;;;;;0.85;0.85;;;18.70;38.10;;;;;;4844532;29;20547;-90
2021/05/10 21:59:10;;;;;;;0.93;0.93;;;18.50;38.30;;;;;;4844452;29;20068;-90
2021/05/10 22:05:00;;;;;;;0.90;0.85;;;18.50;38.60;;;;;;4857520;29;20052;-89
2021/05/10 22:10:49;;;;;;;1.05;0.82;;;18.40;38.60;;;;;;4854719;29;20518;-88
2021/05/10 22:16:38;;;;;;;0.88;0.70;;;18.20;39.00;;;;;;4850771;29;20174;-86
2021/05/10 22:26:44;;;;;;;1.00;0.90;;;18.10;39.10;;;;;;4843660;29;20415;-87
2021/05/10 22:32:32;;;;;;;0.77;0.70;;;18.00;39.50;;;;;;4843856;29;20067;-85
2021/05/10 23:16:19;;;;;;;1.00;0.90;;;17.50;40.60;;;;;;4843345;29;20032;-91
2021/05/10 23:22:08;;;;;;;1.00;1.00;;;17.40;41.00;;;;;;4842758;29;20509;-90
2021/05/10 23:27:55;;;;;;;1.23;1.10;;;17.30;41.10;;;;;;4843209;29;20078;-90
2021/05/10 23:34:00;;;;;;;1.08;0.90;;;17.30;41.40;;;;;;4843008;29;20037;-88
2021/05/10 23:39:48;;;;;;;1.13;1.00;;;17.20;41.60;;;;;;4842915;29;20171;-87
2021/05/10 23:45:37;;;;;;;0.90;0.90;;;17.20;41.70;;;;;;4842790;29;20080;-88
2021/05/10 23:51:25;;;;;;;0.98;0.98;;;17.10;41.70;;;;;;4842650;29;20399;-88
2021/05/10 23:57:14;;;;;;;0.63;0.63;;;17.10;42.00;;;;;;4842768;29;20033;-88
